Pagrindinis puslapis
METAR-TAF:

METAR-TAF

Oro uostai :

Olbija, Italija

platuma: 40-54N, ilguma: 009-31E, Aukštis: 11 m

Dabartinis oras

Ataskaita buvo paskelbta 30 minutes, ne 02:20 UTC
Vėjas 18 kt iš Vakarų/Pietvakarių
Temperatūra 12°C
Drėgmė 71%
Slėgis 1023 hPa
Matomumas 10 km arba daugiau
nėra debesų žemiau 1500 m ir nėra kamuolinių lietaus debesų

METAR: LIEO 180220Z 24018KT CAVOK 12/07 Q1023

Laikas: 03:50 (02:50 UTC)

Prognozė

Ataskaita buvo paskelbta 3 valandos ir 50 minutes, ne 23:00 UTC
Prognozė galioja nuo 18 metu 00 UTC su 18 metu 24 UTC
Vėjas 15 kt iš Vakarų/Pietvakarių
Matomumas 10 km arba daugiau
Išsisklaidę debesys ne aukštis 3000 ft
Laikinai
nuo 18 metu 00 UTC su 18 metu 03 UTC
Matomumas: 4000 m
lietus
Tapsmas
nuo 18 metu 03 UTC su 18 metu 05 UTC
Vėjas 18 kt iš Vakarų su gūsio iki 28 kt
Tapsmas
nuo 18 metu 15 UTC su 18 metu 17 UTC
Vėjas 12 kt iš Vakarų

TAF: LIEO 172300Z 1800/1824 25015KT 9999 SCT030 TEMPO 1800/1803 4000 SHRA BECMG 1803/1805 27018G28KT BECMG 1815/1817 26012KT

Orai ataskaitas ir orų prognozės (METAR, TAF).

turimą stotys yra geltonos ir raudonos taškus žemėlapyje.

Perkelti pele per norėdami pamatyti stoties vardą.

Tada spustelėkite, norėdami matyti oro stebėjimo ir prognozės.

Norėdami pakeisti žemėlapį: spustelėkite ant žalios mygtukų su juodo kryžiaus žemyn,; žalią mygtuką su brūkšneliu, jei norite nutolinti; arba žalių rodyklių gretimoms žemėlapius.


METAR-TAF: